createdAt,value
2018-10-16T00:01:08.138Z,70.54
2018-10-16T00:02:18.074Z,70.54
2018-10-16T00:03:28.026Z,70.64
2018-10-16T00:04:37.719Z,70.54
2018-10-16T00:05:47.710Z,70.83
2018-10-16T00:06:57.663Z,70.36
2018-10-16T00:08:07.609Z,70.54
2018-10-16T00:09:17.560Z,70.45
2018-10-16T00:10:27.247Z,70.64
2018-10-16T00:11:36.956Z,70.64
2018-10-16T00:12:46.929Z,70.45
2018-10-16T00:13:56.882Z,70.26
2018-10-16T00:15:06.842Z,70.26
2018-10-16T00:16:16.795Z,70.07
2018-10-16T00:17:26.508Z,70.01
2018-10-16T00:18:36.447Z,70.26
2018-10-16T00:19:46.143Z,70.64
2018-10-16T00:20:55.843Z,70.73
2018-10-16T00:22:05.288Z,70.64
2018-10-16T00:23:14.976Z,70.45
2018-10-16T00:24:24.931Z,71.41
2018-10-16T00:25:34.878Z,71.88
2018-10-16T00:26:44.829Z,72.17
2018-10-16T00:27:54.778Z,72.17
2018-10-16T00:29:04.735Z,72.64
2018-10-16T00:30:14.434Z,73.98
2018-10-16T00:31:24.134Z,73.56
2018-10-16T00:32:34.190Z,73.18
2018-10-16T00:33:44.177Z,73.37
2018-10-16T00:34:54.137Z,73.56
2018-10-16T00:36:03.569Z,73.94
2018-10-16T00:37:13.270Z,73.56
2018-10-16T00:38:23.223Z,73.56
2018-10-16T00:39:33.180Z,74.13
2018-10-16T00:40:42.867Z,74.61
2018-10-16T00:41:52.552Z,74.42
2018-10-16T00:43:02.257Z,74.8
2018-10-16T00:44:12.218Z,75.09
2018-10-16T00:45:21.930Z,74.99
2018-10-16T00:46:31.891Z,75.28
2018-10-16T00:47:41.848Z,75.37
2018-10-16T00:48:51.561Z,75.76
2018-10-16T00:50:01.245Z,75.72
2018-10-16T00:51:11.213Z,75.57
2018-10-16T00:52:20.915Z,74.9
2018-10-16T00:53:30.885Z,75.37
2018-10-16T00:54:40.837Z,75.28
2018-10-16T00:55:50.348Z,75.09
2018-10-16T00:57:00.357Z,74.9
2018-10-16T00:58:10.320Z,75.37
2018-10-16T00:59:20.269Z,75.28
2018-10-16T01:00:30.236Z,75.66
2018-10-16T01:01:40.192Z,75.47
2018-10-16T01:02:49.633Z,75.76
2018-10-16T01:03:59.327Z,75.95
2018-10-16T01:05:09.278Z,75.95
2018-10-16T01:06:19.243Z,76.62
2018-10-16T01:07:28.937Z,76.01
2018-10-16T01:08:38.882Z,76.77
2018-10-16T01:09:48.828Z,76.96
2018-10-16T01:10:58.790Z,76.86
2018-10-16T01:12:08.740Z,76.77
2018-10-16T01:13:18.585Z,77.34
2018-10-16T01:14:28.579Z,77.25
2018-10-16T01:15:38.538Z,77.34
2018-10-16T01:16:48.497Z,77.15
2018-10-16T01:17:58.175Z,77.25
2018-10-16T01:19:08.110Z,77.53
2018-10-16T01:20:17.804Z,77.82
2018-10-16T01:21:27.483Z,77.82
2018-10-16T01:22:37.442Z,78.3
2018-10-16T01:23:47.141Z,78.01
2018-10-16T01:24:56.864Z,78.77
2018-10-16T01:26:06.820Z,78.39
2018-10-16T01:27:16.771Z,78.49
2018-10-16T01:28:26.463Z,78.77
2018-10-16T01:29:36.150Z,78.96
2018-10-16T01:30:45.843Z,79.06
2018-10-16T01:31:55.533Z,78.77
2018-10-16T01:33:05.481Z,78.2
2018-10-16T01:34:14.916Z,78.49
2018-10-16T01:35:24.901Z,78.01
2018-10-16T01:36:34.595Z,78.01
2018-10-16T01:37:44.297Z,77.53
2018-10-16T01:38:54.254Z,77.44
2018-10-16T01:40:04.205Z,77.44
2018-10-16T01:41:14.173Z,78.2
2018-10-16T01:42:24.124Z,77.91
2018-10-16T01:43:34.073Z,77.72
2018-10-16T01:44:43.778Z,78.2
2018-10-16T01:45:53.746Z,78.2
2018-10-16T01:47:03.433Z,78.86
2018-10-16T01:48:13.388Z,78.96
2018-10-16T01:49:23.348Z,79.44
2018-10-16T01:50:33.047Z,79.72
2018-10-16T01:51:42.998Z,79.91
2018-10-16T01:52:52.932Z,80.3
2018-10-16T01:54:02.883Z,80.26
2018-10-16T01:55:12.823Z,80.96
2018-10-16T01:56:22.502Z,81.25
2018-10-16T01:57:32.461Z,81.02
2018-10-16T01:58:42.401Z,81.21
2018-10-16T01:59:52.084Z,81.68
2018-10-16T02:01:02.035Z,81.88
2018-10-16T02:02:12.010Z,82.17
2018-10-16T02:03:21.963Z,82.45
2018-10-16T02:04:32.141Z,83.12
2018-10-16T02:05:42.136Z,83.12
2018-10-16T02:06:52.127Z,83.78
2018-10-16T02:08:01.304Z,83.78
2018-10-16T02:09:10.987Z,83.97
2018-10-16T02:10:20.684Z,83.88
2018-10-16T02:11:30.650Z,83.59
2018-10-16T02:12:40.598Z,83.97
2018-10-16T02:13:50.541Z,83.97
2018-10-16T02:15:00.503Z,83.84
2018-10-16T02:16:10.446Z,83.88
2018-10-16T02:17:20.396Z,83.4
2018-10-16T02:18:30.339Z,83.4
2018-10-16T02:19:40.037Z,83.12
2018-10-16T02:20:49.731Z,82.73
2018-10-16T02:21:59.678Z,82.35
2018-10-16T02:23:09.623Z,82.45
2018-10-16T02:24:19.318Z,81.88
2018-10-16T02:25:28.744Z,82.07
2018-10-16T02:26:38.443Z,82.17
2018-10-16T02:27:48.133Z,81.97
2018-10-16T02:28:58.074Z,82.35
2018-10-16T02:30:07.510Z,82.07
2018-10-16T02:31:17.453Z,82.54
2018-10-16T02:32:26.891Z,82.54
2018-10-16T02:33:36.858Z,82.73
2018-10-16T02:34:46.835Z,82.92
2018-10-16T02:35:56.787Z,83.4
2018-10-16T02:37:06.739Z,83.59
2018-10-16T02:38:16.707Z,83.78
2018-10-16T02:39:26.406Z,83.59
2018-10-16T02:40:36.107Z,83.78
2018-10-16T02:41:45.806Z,84.07
2018-10-16T02:42:55.758Z,84.07
2018-10-16T02:44:05.697Z,83.84
2018-10-16T02:45:15.390Z,84.03
2018-10-16T02:46:25.083Z,84.31
2018-10-16T02:47:35.037Z,84.5
2018-10-16T02:48:44.981Z,84.69
2018-10-16T02:49:54.955Z,84.69
2018-10-16T02:51:04.914Z,84.74
2018-10-16T02:52:14.892Z,84.41
2018-10-16T02:53:24.590Z,84.26
2018-10-16T02:54:34.022Z,84.26
2018-10-16T02:55:43.726Z,84.26
2018-10-16T02:56:53.680Z,83.97
2018-10-16T02:58:03.633Z,83.97
2018-10-16T02:59:13.644Z,83.78
2018-10-16T03:00:23.342Z,83.78
2018-10-16T03:01:33.301Z,83.97
2018-10-16T03:02:43.263Z,83.88
2018-10-16T03:03:53.219Z,83.88
2018-10-16T03:05:03.165Z,83.88
2018-10-16T03:06:13.126Z,83.88
2018-10-16T03:07:23.085Z,84.45
2018-10-16T03:08:33.038Z,84.55
2018-10-16T03:09:43.042Z,85.27
2018-10-16T03:10:53.009Z,85.46
2018-10-16T03:12:02.701Z,85.41
2018-10-16T03:13:12.637Z,85.74
2018-10-16T03:14:22.076Z,85.84
2018-10-16T03:15:32.043Z,86.12
2018-10-16T03:16:41.752Z,85.84
2018-10-16T03:17:51.706Z,85.36
2018-10-16T03:19:01.449Z,85.64
2018-10-16T03:20:11.399Z,85.74
2018-10-16T03:21:21.234Z,86.32
2018-10-16T03:22:31.213Z,86.51
2018-10-16T03:23:41.165Z,87.36
2018-10-16T03:24:50.597Z,87.36
2018-10-16T03:26:00.546Z,87.07
2018-10-16T03:27:10.496Z,87.55
2018-10-16T03:28:20.183Z,87.55
2018-10-16T03:29:30.140Z,87.65
2018-10-16T03:30:39.568Z,87.36
2018-10-16T03:31:49.288Z,87.65
2018-10-16T03:32:59.257Z,87.46
2018-10-16T03:34:09.200Z,87.07
2018-10-16T03:35:19.155Z,86.51
2018-10-16T03:36:28.852Z,86.6
2018-10-16T03:37:38.798Z,86.22
2018-10-16T03:38:48.521Z,86.6
2018-10-16T03:39:58.221Z,86.12
2018-10-16T03:41:07.664Z,86.16
2018-10-16T03:42:17.622Z,86.12
2018-10-16T03:43:27.581Z,86.45
2018-10-16T03:44:37.535Z,86.03
2018-10-16T03:45:47.227Z,86.45
2018-10-16T03:46:57.175Z,87.07
2018-10-16T03:48:07.137Z,87.55
2018-10-16T03:49:17.106Z,87.74
2018-10-16T03:50:26.798Z,88.31
2018-10-16T03:51:36.549Z,88.6
2018-10-16T03:52:46.499Z,88.7
2018-10-16T03:53:56.505Z,89.17
2018-10-16T03:55:06.453Z,88.6
2018-10-16T03:56:16.418Z,88.89
2018-10-16T03:57:26.621Z,88.51
2018-10-16T03:58:36.423Z,89.26
2018-10-16T03:59:46.126Z,89.36
2018-10-16T04:00:56.080Z,89.46
2018-10-16T04:02:06.050Z,89.36
2018-10-16T04:03:15.747Z,88.7
2018-10-16T04:04:25.451Z,88.22
2018-10-16T04:05:35.403Z,88.89
2018-10-16T04:06:45.487Z,89.36
2018-10-16T04:07:55.874Z,89.07
2018-10-16T04:09:05.576Z,89.17
2018-10-16T04:10:15.537Z,89.26
2018-10-16T04:11:25.479Z,90.27
2018-10-16T04:12:35.437Z,90.41
2018-10-16T04:13:45.394Z,90.17
2018-10-16T04:14:55.329Z,90.36
2018-10-16T04:16:05.281Z,90.56
2018-10-16T04:17:15.231Z,90.46
2018-10-16T04:18:25.179Z,89.98
2018-10-16T04:19:35.122Z,89.32
2018-10-16T04:20:45.064Z,89.13
2018-10-16T04:21:55.039Z,89.98
2018-10-16T04:23:04.737Z,90.94
2018-10-16T04:24:14.697Z,91.03
2018-10-16T04:25:24.652Z,91.6
2018-10-16T04:26:34.085Z,91.31
2018-10-16T04:27:44.033Z,91.6
2018-10-16T04:28:53.731Z,91.89
2018-10-16T04:30:03.778Z,91.6
2018-10-16T04:31:13.467Z,91.6
2018-10-16T04:32:23.404Z,91.89
2018-10-16T04:33:33.104Z,92.08
2018-10-16T04:34:43.048Z,92.74
2018-10-16T04:35:52.453Z,92.55
2018-10-16T04:37:02.419Z,92.27
2018-10-16T04:38:12.367Z,92.55
2018-10-16T04:39:22.333Z,92.94
2018-10-16T04:40:32.276Z,93.79
2018-10-16T04:41:42.549Z,93.6
2018-10-16T04:42:52.487Z,94.65
2018-10-16T04:44:02.448Z,95.27
2018-10-16T04:45:12.407Z,95.56
2018-10-16T04:46:22.402Z,96.03
2018-10-16T04:47:32.107Z,95.56
2018-10-16T04:48:41.830Z,95.94
2018-10-16T04:49:51.789Z,96.51
2018-10-16T04:51:01.721Z,96.41
2018-10-16T04:52:10.967Z,96.98
2018-10-16T04:53:20.677Z,96.98
2018-10-16T04:54:30.651Z,96.98
2018-10-16T04:55:40.608Z,97.46
2018-10-16T04:56:50.314Z,97.17
2018-10-16T04:58:00.011Z,97.55
2018-10-16T04:59:09.713Z,97.65
2018-10-16T05:00:19.661Z,97.93
2018-10-16T05:01:29.667Z,98.13
2018-10-16T05:02:39.647Z,97.93
2018-10-16T05:03:49.338Z,97.17
2018-10-16T05:04:59.182Z,96.7
2018-10-16T05:06:09.160Z,97.17
2018-10-16T05:07:19.128Z,96.6
2018-10-16T05:08:29.099Z,96.51
2018-10-16T05:09:38.795Z,96.31
2018-10-16T05:10:48.492Z,96.31
2018-10-16T05:11:58.446Z,96.31
2018-10-16T05:13:08.188Z,95.84
2018-10-16T05:14:18.542Z,95.56
2018-10-16T05:15:28.226Z,95.56
2018-10-16T05:16:37.932Z,95.65
2018-10-16T05:17:47.894Z,96.31
2018-10-16T05:18:57.913Z,96.03
2018-10-16T05:20:08.674Z,96.51
2018-10-16T05:21:18.747Z,96.22
2018-10-16T05:22:28.440Z,95.65
2018-10-16T05:23:38.406Z,96.79
2018-10-16T05:24:48.365Z,97.27
2018-10-16T05:25:58.092Z,97.65
2018-10-16T05:27:08.054Z,98.69
2018-10-16T05:28:18.140Z,98.79
2018-10-16T05:29:28.117Z,99.27
2018-10-16T05:30:37.820Z,98.69
2018-10-16T05:31:47.767Z,99.93
2018-10-16T05:32:57.469Z,99.74
2018-10-16T05:34:07.181Z,99.65
2018-10-16T05:35:17.152Z,99.36
2018-10-16T05:36:27.096Z,99.84
2018-10-16T05:37:36.785Z,99.99
2018-10-16T05:38:46.753Z,99.65
2018-10-16T05:39:56.709Z,99.93
2018-10-16T05:41:06.650Z,99.65
2018-10-16T05:42:16.345Z,99.55
2018-10-16T05:43:26.046Z,99.36
2018-10-16T05:44:35.986Z,99.46
2018-10-16T05:45:45.429Z,99.55
2018-10-16T05:46:55.112Z,99.55
2018-10-16T05:48:05.079Z,99.93
2018-10-16T05:49:15.021Z,99.84
2018-10-16T05:50:24.977Z,99.46
2018-10-16T05:51:34.670Z,98.5
2018-10-16T05:52:44.376Z,98.69
2018-10-16T05:53:54.479Z,98.69
2018-10-16T05:55:04.480Z,98.03
2018-10-16T05:56:13.902Z,97.55
2018-10-16T05:57:23.862Z,97.36
2018-10-16T05:58:33.306Z,98.08
2018-10-16T05:59:43.021Z,98.36
2018-10-16T06:00:52.989Z,97.99
2018-10-16T06:02:02.957Z,97.6
2018-10-16T06:03:12.653Z,97.6
2018-10-16T06:04:22.602Z,97.31
2018-10-16T06:05:32.772Z,97.03
2018-10-16T06:06:43.181Z,97.31
2018-10-16T06:07:52.879Z,97.51
2018-10-16T06:09:02.572Z,97.41
2018-10-16T06:10:12.599Z,97.03
2018-10-16T06:11:22.567Z,97.51
2018-10-16T06:12:32.540Z,97.22
2018-10-16T06:13:42.278Z,97.51
2018-10-16T06:14:52.235Z,97.31
2018-10-16T06:16:02.099Z,97.51
2018-10-16T06:17:11.874Z,96.94
2018-10-16T06:18:21.590Z,97.03
2018-10-16T06:19:31.547Z,97.03
2018-10-16T06:20:41.259Z,97.6
2018-10-16T06:21:51.226Z,97.31
2018-10-16T06:23:01.182Z,97.31
2018-10-16T06:24:11.147Z,97.22
2018-10-16T06:25:21.285Z,97.51
2018-10-16T06:26:31.090Z,97.22
2018-10-16T06:27:41.205Z,97.51
2018-10-16T06:28:51.535Z,97.51
2018-10-16T06:30:01.532Z,96.94
2018-10-16T06:31:11.303Z,96.84
2018-10-16T06:32:21.260Z,96.94
2018-10-16T06:33:31.156Z,97.6
2018-10-16T06:34:40.855Z,97.41
2018-10-16T06:35:49.771Z,96.36
2018-10-16T06:36:59.722Z,96.27
2018-10-16T06:38:09.692Z,96.27
2018-10-16T06:39:19.649Z,96.65
2018-10-16T06:40:29.733Z,96.46
2018-10-16T06:41:40.162Z,96.27
2018-10-16T06:42:50.694Z,96.32
2018-10-16T06:44:00.537Z,96.22
2018-10-16T06:45:10.567Z,95.56
2018-10-16T06:46:20.601Z,95.08
2018-10-16T06:47:31.160Z,95.17
2018-10-16T06:48:42.380Z,94.89
2018-10-16T06:49:54.046Z,94.22
2018-10-16T06:51:04.020Z,94.6
2018-10-16T06:52:13.985Z,94.32
2018-10-16T06:53:24.154Z,93.74
2018-10-16T06:54:34.510Z,93.93
2018-10-16T06:55:44.722Z,93.93
2018-10-16T06:56:54.681Z,94.32
2018-10-16T06:58:04.640Z,94.32
2018-10-16T06:59:14.624Z,93.84
2018-10-16T07:00:24.799Z,93.84
2018-10-16T07:01:34.842Z,93.27
2018-10-16T07:02:44.525Z,92.79
2018-10-16T07:03:54.221Z,93.27
2018-10-16T07:05:03.939Z,93.51
2018-10-16T07:06:13.653Z,93.55
2018-10-16T07:07:23.275Z,93.22
2018-10-16T07:08:33.653Z,93.22
2018-10-16T07:09:43.604Z,92.84
2018-10-16T07:10:53.310Z,92.74
2018-10-16T07:12:03.021Z,92.65
2018-10-16T07:13:12.744Z,92.08
2018-10-16T07:14:22.685Z,92.84
2018-10-16T07:15:32.404Z,92.27
2018-10-16T07:16:42.381Z,91.79
2018-10-16T07:17:52.358Z,91.6
2018-10-16T07:19:02.371Z,91.13
2018-10-16T07:20:12.332Z,91.5
2018-10-16T07:21:22.442Z,91.27
2018-10-16T07:22:32.589Z,90.41
2018-10-16T07:23:42.600Z,90.41
2018-10-16T07:24:52.434Z,89.74
2018-10-16T07:26:02.392Z,89.74
2018-10-16T07:27:12.351Z,89.07
2018-10-16T07:28:22.072Z,89.45
2018-10-16T07:29:32.017Z,89.54
2018-10-16T07:30:41.703Z,89.45
2018-10-16T07:31:51.900Z,89.17
2018-10-16T07:33:01.623Z,89.45
2018-10-16T07:34:11.329Z,89.31
2018-10-16T07:35:21.034Z,88.78
2018-10-16T07:36:31.006Z,87.87
2018-10-16T07:37:41.283Z,87.68
2018-10-16T07:38:51.572Z,87.68
2018-10-16T07:40:02.101Z,87.49
2018-10-16T07:41:11.840Z,86.63
2018-10-16T07:42:21.951Z,86.35
2018-10-16T07:43:31.392Z,87.06
2018-10-16T07:44:41.078Z,86.68
2018-10-16T07:45:50.797Z,86.1
2018-10-16T07:47:00.509Z,85.53
2018-10-16T07:48:10.622Z,85.25
2018-10-16T07:49:20.705Z,84.86
2018-10-16T07:50:30.680Z,84.14
2018-10-16T07:51:40.678Z,84.14
2018-10-16T07:52:50.365Z,83.28
2018-10-16T07:54:00.187Z,82.08
2018-10-16T07:55:10.178Z,81.13
2018-10-16T07:56:19.898Z,81.03
2018-10-16T07:57:29.628Z,80.46
2018-10-16T07:58:39.357Z,79.35
2018-10-16T07:59:49.337Z,78.39
2018-10-16T08:00:59.331Z,78.05
2018-10-16T08:02:09.307Z,76.71
2018-10-16T08:03:19.320Z,75.85
2018-10-16T08:04:29.282Z,75.7
2018-10-16T08:05:39.281Z,75.41
2018-10-16T08:06:49.260Z,74.84
2018-10-16T08:07:59.500Z,74.55
2018-10-16T08:09:09.468Z,73.97
2018-10-16T08:10:19.443Z,73.82
2018-10-16T08:11:29.651Z,73.72
2018-10-16T08:12:40.030Z,73.82
2018-10-16T08:13:50.011Z,72.96
2018-10-16T08:14:59.713Z,72.19
2018-10-16T08:16:09.409Z,72.38
2018-10-16T08:17:19.416Z,72.86
2018-10-16T08:18:29.728Z,72.48
2018-10-16T08:19:39.206Z,72.19
2018-10-16T08:20:49.211Z,72.29
2018-10-16T08:21:59.204Z,71.81
2018-10-16T08:23:08.921Z,71.46
2018-10-16T08:24:18.903Z,71.75
2018-10-16T08:25:28.600Z,70.89
2018-10-16T08:26:38.596Z,70.7
2018-10-16T08:27:48.121Z,69.39
2018-10-16T08:28:57.886Z,68.43
2018-10-16T08:30:08.092Z,67.76
2018-10-16T08:31:17.941Z,68.33
2018-10-16T08:32:27.912Z,68.14
2018-10-16T08:33:37.882Z,68.43
2018-10-16T08:34:47.868Z,67.28
2018-10-16T08:35:57.393Z,67.47
2018-10-16T08:37:07.248Z,67.28
2018-10-16T08:38:17.613Z,67.18
2018-10-16T08:39:27.099Z,67.22
2018-10-16T08:40:36.745Z,67.02
2018-10-16T08:41:46.361Z,66.64
2018-10-16T08:42:56.770Z,66.74
2018-10-16T08:44:06.490Z,66.55
2018-10-16T08:45:16.220Z,66.83
2018-10-16T08:46:26.244Z,67.38
2018-10-16T08:47:36.186Z,67.57
2018-10-16T08:48:46.044Z,67.38
2018-10-16T08:49:56.027Z,67.28
2018-10-16T08:51:06.000Z,66.93
2018-10-16T08:52:15.979Z,66.74
2018-10-16T08:53:25.954Z,66.45
2018-10-16T08:54:35.983Z,66.45
2018-10-16T08:55:45.973Z,66.64
2018-10-16T08:56:55.955Z,66.74
2018-10-16T08:58:05.454Z,66.61
2018-10-16T08:59:15.166Z,66.64
2018-10-16T09:00:24.917Z,66.06
2018-10-16T09:01:34.922Z,65.97
2018-10-16T09:02:44.642Z,65.88
2018-10-16T09:03:54.613Z,64.85
2018-10-16T09:05:04.347Z,64.56
2018-10-16T09:06:14.317Z,63.45
2018-10-16T09:07:24.035Z,62.68
2018-10-16T09:08:33.753Z,62.04
2018-10-16T09:09:43.773Z,61.27
2018-10-16T09:10:53.783Z,60.11
2018-10-16T09:12:03.763Z,60.31
2018-10-16T09:13:13.858Z,60.6
2018-10-16T09:14:24.120Z,60.34
2018-10-16T09:15:34.420Z,59.57
2018-10-16T09:16:44.141Z,59.76
2018-10-16T09:17:53.580Z,59.76
2018-10-16T09:19:03.537Z,60.14
2018-10-16T09:20:13.525Z,59.38
2018-10-16T09:21:23.451Z,59.19
2018-10-16T09:22:33.420Z,58.61
2018-10-16T09:23:43.124Z,57.87
2018-10-16T09:24:53.169Z,58.35
2018-10-16T09:26:03.440Z,57
2018-10-16T09:27:13.418Z,57.48
2018-10-16T09:28:23.391Z,58.15
2018-10-16T09:29:33.108Z,58.15
2018-10-16T09:30:43.267Z,57.97
2018-10-16T09:31:53.654Z,57.68
2018-10-16T09:33:03.625Z,58.15
2018-10-16T09:34:13.623Z,57.2
2018-10-16T09:35:23.510Z,57.48
2018-10-16T09:36:33.220Z,57.87
2018-10-16T09:37:43.410Z,58.25
2018-10-16T09:38:54.106Z,58.06
2018-10-16T09:40:03.818Z,56.93
2018-10-16T09:41:13.535Z,56.84
2018-10-16T09:42:23.511Z,56.48
2018-10-16T09:43:33.487Z,56.36
2018-10-16T09:44:42.929Z,55.62
2018-10-16T09:45:52.895Z,55.33
2018-10-16T09:47:02.886Z,54.65
2018-10-16T09:48:13.087Z,53.62
2018-10-16T09:49:22.800Z,53.72
2018-10-16T09:50:32.875Z,52.78
2018-10-16T09:51:42.891Z,52.04
2018-10-16T09:52:52.078Z,52.4
2018-10-16T09:54:01.785Z,52.87
2018-10-16T09:55:11.778Z,52.3
2018-10-16T09:56:21.739Z,52.2
2018-10-16T09:57:31.710Z,52.2
2018-10-16T09:58:41.412Z,52.49
2018-10-16T09:59:51.145Z,52.4
2018-10-16T10:01:01.411Z,52.11
2018-10-16T10:02:11.656Z,52.08
2018-10-16T10:03:21.621Z,51.5
2018-10-16T10:04:31.357Z,51.43
2018-10-16T10:05:41.314Z,51.05
2018-10-16T10:06:51.296Z,50.85
2018-10-16T10:08:01.285Z,50.95
2018-10-16T10:09:10.968Z,51.5
2018-10-16T10:10:20.650Z,50.83
2018-10-16T10:11:29.810Z,51.31
2018-10-16T10:12:39.481Z,51.5
2018-10-16T10:13:49.406Z,51.6
2018-10-16T10:14:59.355Z,50.83
2018-10-16T10:16:08.740Z,51.02
2018-10-16T10:17:18.424Z,50.85
2018-10-16T10:18:27.834Z,50.66
2018-10-16T10:19:37.752Z,50.66
2018-10-16T10:20:46.931Z,50.85
2018-10-16T10:21:56.857Z,50.95
2018-10-16T10:23:06.846Z,50.66
2018-10-16T10:24:16.670Z,50.18
2018-10-16T10:25:26.682Z,49.43
2018-10-16T10:26:35.835Z,49.43
2018-10-16T10:27:45.240Z,50.01
2018-10-16T10:28:54.687Z,50.04
2018-10-16T10:30:04.401Z,50.04
2018-10-16T10:31:14.056Z,49.37
2018-10-16T10:32:23.972Z,48.42
2018-10-16T10:33:33.644Z,47.87
2018-10-16T10:34:43.595Z,47.87
2018-10-16T10:35:53.514Z,47.87
2018-10-16T10:37:03.498Z,47.77
2018-10-16T10:38:13.486Z,48.25
2018-10-16T10:39:23.187Z,47.96
2018-10-16T10:40:33.396Z,48.33
2018-10-16T10:41:43.470Z,48.42
2018-10-16T10:42:53.183Z,48.03
2018-10-16T10:44:03.162Z,48.81
2018-10-16T10:45:12.895Z,48.88
2018-10-16T10:46:22.911Z,48.79
2018-10-16T10:47:32.617Z,47.85
2018-10-16T10:48:42.335Z,47.94
2018-10-16T10:49:52.419Z,48.88
2018-10-16T10:51:03.263Z,48.66
2018-10-16T10:52:15.046Z,48.69
2018-10-16T10:53:24.496Z,48.3
2018-10-16T10:54:34.227Z,48.03
2018-10-16T10:55:44.194Z,47
2018-10-16T10:56:54.293Z,46.13
2018-10-16T10:58:04.454Z,45.65
2018-10-16T10:59:14.325Z,45.4
2018-10-16T11:00:24.368Z,45.38
2018-10-16T11:01:34.334Z,45.48
2018-10-16T11:02:44.308Z,45.57
2018-10-16T11:03:54.295Z,46.03
2018-10-16T11:05:04.262Z,45.94
2018-10-16T11:06:14.230Z,45.09
2018-10-16T11:07:24.208Z,45.01
2018-10-16T11:08:34.182Z,44.56
2018-10-16T11:09:43.887Z,42.66
2018-10-16T11:10:53.591Z,40.75
2018-10-16T11:12:03.045Z,40.4
2018-10-16T11:13:12.747Z,40.59
2018-10-16T11:14:22.427Z,41.52
2018-10-16T11:15:32.418Z,40.38
2018-10-16T11:16:42.361Z,39.16
2018-10-16T11:17:52.067Z,38.31
2018-10-16T11:19:02.045Z,38.4
2018-10-16T11:20:12.029Z,37.82
2018-10-16T11:21:22.007Z,38.4
2018-10-16T11:22:31.731Z,38.48
2018-10-16T11:23:41.716Z,38.29
2018-10-16T11:24:51.676Z,37.81
2018-10-16T11:26:01.658Z,38.31
2018-10-16T11:27:11.821Z,38.37
2018-10-16T11:28:22.281Z,38.37
2018-10-16T11:29:32.243Z,38.58
2018-10-16T11:30:42.161Z,37.51
2018-10-16T11:31:52.143Z,36.87
2018-10-16T11:33:01.957Z,36.04
2018-10-16T11:34:12.440Z,35.37
2018-10-16T11:35:22.112Z,35.1
2018-10-16T11:36:32.093Z,34.52
2018-10-16T11:37:42.099Z,33.65
2018-10-16T11:38:52.089Z,33.69
2018-10-16T11:40:02.323Z,33.39
2018-10-16T11:41:12.038Z,33.02
2018-10-16T11:42:21.499Z,32.65
2018-10-16T11:43:31.473Z,32.35
2018-10-16T11:44:41.465Z,31.79
2018-10-16T11:45:51.692Z,30.73
2018-10-16T11:47:01.747Z,30.18
2018-10-16T11:48:11.759Z,29.88
2018-10-16T11:49:21.747Z,29.42
2018-10-16T11:50:31.729Z,29.9
2018-10-16T11:51:41.181Z,30.83
2018-10-16T11:52:51.188Z,31.96
2018-10-16T11:54:01.156Z,32.43
2018-10-16T11:55:11.154Z,32.91
2018-10-16T11:56:21.108Z,33.2
2018-10-16T11:57:31.109Z,33.95
2018-10-16T11:58:41.087Z,34.12
2018-10-16T11:59:51.083Z,34.28
2018-10-16T12:01:01.084Z,34.97
2018-10-16T12:02:11.445Z,35.43
2018-10-16T12:03:21.954Z,35.92
2018-10-16T12:04:31.660Z,35.9
2018-10-16T12:05:41.631Z,35.51
2018-10-16T12:06:51.355Z,35.24
2018-10-16T12:08:01.685Z,35.55
2018-10-16T12:09:12.133Z,34.38
2018-10-16T12:10:22.126Z,34.67
2018-10-16T12:11:32.169Z,34.58
2018-10-16T12:12:42.181Z,34.48
2018-10-16T12:13:52.238Z,34.48
2018-10-16T12:15:02.345Z,34.58
2018-10-16T12:16:12.328Z,35.45
2018-10-16T12:17:21.784Z,36.02
2018-10-16T12:18:31.495Z,35.71
2018-10-16T12:19:41.565Z,36.38
2018-10-16T12:20:51.427Z,36.58
2018-10-16T12:22:01.545Z,36.95
2018-10-16T12:23:11.261Z,37.34
2018-10-16T12:24:20.952Z,37.34
2018-10-16T12:25:30.854Z,37.23
2018-10-16T12:26:40.579Z,37.61
2018-10-16T12:27:50.058Z,37.23
2018-10-16T12:28:59.911Z,37.73
2018-10-16T12:30:10.484Z,37.61
2018-10-16T12:31:20.552Z,37.71
2018-10-16T12:32:30.605Z,37.9
2018-10-16T12:33:40.597Z,38.09
2018-10-16T12:34:50.370Z,38.27
2018-10-16T12:36:00.346Z,38.76
2018-10-16T12:37:10.031Z,39.22
2018-10-16T12:38:20.408Z,39.41
2018-10-16T12:39:30.637Z,39.8
2018-10-16T12:40:40.473Z,39.69
2018-10-16T12:41:50.466Z,39.39
2018-10-16T12:43:00.449Z,39.88
2018-10-16T12:44:10.728Z,39.29
2018-10-16T12:45:20.689Z,39.29
2018-10-16T12:46:30.680Z,39.69
2018-10-16T12:47:40.139Z,40.46
2018-10-16T12:48:50.118Z,39.59
2018-10-16T12:50:00.092Z,39.49
2018-10-16T12:51:10.478Z,39.49
2018-10-16T12:52:21.105Z,38.81
2018-10-16T12:53:30.833Z,39.51
2018-10-16T12:54:40.820Z,39.22
2018-10-16T12:55:50.822Z,39.22
2018-10-16T12:57:01.127Z,39.41
2018-10-16T12:58:11.421Z,38.73
2018-10-16T12:59:21.404Z,38.17
2018-10-16T13:00:30.895Z,38.46
2018-10-16T13:01:40.606Z,38.66
2018-10-16T13:02:50.682Z,39.14
2018-10-16T13:04:00.763Z,40.38
2018-10-16T13:05:10.542Z,40.17
2018-10-16T13:06:20.874Z,40.92
2018-10-16T13:07:30.843Z,41.79
2018-10-16T13:08:40.789Z,41.87
2018-10-16T13:09:50.527Z,41.97
2018-10-16T13:11:00.309Z,42.43
2018-10-16T13:12:10.620Z,42.07
2018-10-16T13:13:20.333Z,41.58
2018-10-16T13:14:30.045Z,41.11
2018-10-16T13:15:39.998Z,40.36
2018-10-16T13:16:50.531Z,39.8
2018-10-16T13:18:01.044Z,39.51
2018-10-16T13:19:10.800Z,39.51
2018-10-16T13:20:21.068Z,39.29
2018-10-16T13:21:30.778Z,39.29
2018-10-16T13:22:40.744Z,39.28
2018-10-16T13:23:50.531Z,40.13
2018-10-16T13:25:00.731Z,40.61
2018-10-16T13:26:10.879Z,41.36
2018-10-16T13:27:21.084Z,41.85
2018-10-16T13:28:31.079Z,40.98
2018-10-16T13:29:41.343Z,40.52
2018-10-16T13:30:51.783Z,40.52
2018-10-16T13:32:01.972Z,40.61
2018-10-16T13:33:12.343Z,40.81
2018-10-16T13:34:22.316Z,40.81
2018-10-16T13:35:32.276Z,40.9
2018-10-16T13:36:42.342Z,40.34
2018-10-16T13:37:52.233Z,39.74
2018-10-16T13:39:02.005Z,40.5
2018-10-16T13:40:11.898Z,40.4
2018-10-16T13:41:21.784Z,41.25
2018-10-16T13:42:31.978Z,41.15
2018-10-16T13:43:41.874Z,41.52
2018-10-16T13:44:51.828Z,41.52
2018-10-16T13:46:01.722Z,41.33
2018-10-16T13:47:12.049Z,41.33
2018-10-16T13:48:22.034Z,41.23
2018-10-16T13:49:31.758Z,40.96
2018-10-16T13:50:41.474Z,40.57
2018-10-16T13:51:51.238Z,40.78
2018-10-16T13:53:01.076Z,40.78
2018-10-16T13:54:10.790Z,41.05
2018-10-16T13:55:20.755Z,40.69
2018-10-16T13:56:30.749Z,40.88
2018-10-16T13:57:40.530Z,41.63
2018-10-16T13:58:50.498Z,41.63
2018-10-16T14:00:00.479Z,41.83
2018-10-16T14:01:10.446Z,41.83
2018-10-16T14:02:20.174Z,42.02
2018-10-16T14:03:30.143Z,41.83
2018-10-16T14:04:39.946Z,41.73
2018-10-16T14:05:49.867Z,41.05
2018-10-16T14:06:59.834Z,41.05
2018-10-16T14:08:09.943Z,41.44
2018-10-16T14:09:20.366Z,41.56
2018-10-16T14:10:30.347Z,41.54
2018-10-16T14:11:40.311Z,41.63
2018-10-16T14:12:50.007Z,41.83
2018-10-16T14:14:00.039Z,42.02
2018-10-16T14:15:10.167Z,41.93
2018-10-16T14:16:20.050Z,41.93
2018-10-16T14:17:30.014Z,42.14
2018-10-16T14:18:39.727Z,42.04
2018-10-16T14:19:49.438Z,42.5
2018-10-16T14:20:59.607Z,42.7
2018-10-16T14:22:09.895Z,43.54
2018-10-16T14:23:20.183Z,42.77
2018-10-16T14:24:30.147Z,43.26
2018-10-16T14:25:39.867Z,42.6
2018-10-16T14:26:49.899Z,42.7
2018-10-16T14:27:59.914Z,42.02
2018-10-16T14:29:10.187Z,42.41
2018-10-16T14:30:20.129Z,42.7
2018-10-16T14:31:29.845Z,42.99
2018-10-16T14:32:39.615Z,43.47
2018-10-16T14:33:49.602Z,43.66
2018-10-16T14:35:00.516Z,43.64
2018-10-16T14:36:10.498Z,43.37
2018-10-16T14:37:20.469Z,43.18
2018-10-16T14:38:30.444Z,43.35
2018-10-16T14:39:40.422Z,43.64
2018-10-16T14:40:50.126Z,43.93
2018-10-16T14:42:00.098Z,44.12
2018-10-16T14:43:09.823Z,44.49
2018-10-16T14:44:19.529Z,44.39
2018-10-16T14:45:29.493Z,44.68
2018-10-16T14:46:39.459Z,44.59
2018-10-16T14:47:49.473Z,44.97
2018-10-16T14:48:59.667Z,45.07
2018-10-16T14:50:09.684Z,44.97
2018-10-16T14:51:19.593Z,44.68
2018-10-16T14:52:29.549Z,44.59
2018-10-16T14:53:39.517Z,44.59
2018-10-16T14:54:49.486Z,44.59
2018-10-16T14:55:59.526Z,44.68
2018-10-16T14:57:09.668Z,45.36
2018-10-16T14:58:19.379Z,45.26
2018-10-16T14:59:29.361Z,45.07
2018-10-16T15:00:39.348Z,44.87
2018-10-16T15:01:49.319Z,44.59
2018-10-16T15:02:59.092Z,44.68
2018-10-16T15:04:09.075Z,44.6